^^
Saratoga-Weather Station Historical Data
Daily Summary for April 16, 2021 Units:  English    Metric   Both
Daily Weekly Monthly Yearly Custom
  High: Low: Average:
Temperature: 49.5 °F 41 °F 44.8 °F
Dew Point: 46.2 °F 39.4 °F 43 °F
Humidity: 96% 86% 94%
Wind Speed: 2.9mph 0mph 0.2mph
Wind Gust: 4mph - -
Wind- - SSE
Pressure: 30.6 in 30.5 in -
Precipitation: 0 in    
Historical Graphs
 
 
Tabular Data for April 16, 2021
Time Temperature Dew Point Pressure Wind Wind Speed Wind Gust Humidity Rainfall Rate (Hourly) solar
00:03 43.9 °F 42.6 °F 30.5 in Calm     95% 0 in 0 W/m2
00:08 43.9 °F 42.6 °F 30.5 in Calm     95% 0 in 0 W/m2
00:13 43.9 °F 42.6 °F 30.5 in Calm     95% 0 in 0 W/m2
00:18 43.9 °F 42.6 °F 30.5 in Calm     95% 0 in 0 W/m2
00:23 43.9 °F 42.6 °F 30.5 in Calm     95% 0 in 0 W/m2
00:28 43.9 °F 42.6 °F 30.6 in Calm     95% 0 in 0 W/m2
00:33 43.9 °F 42.6 °F 30.5 in Calm     95% 0 in 0 W/m2
00:38 43.9 °F 42.8 °F 30.5 in NW 2 mph 2 mph 96% 0 in 0 W/m2
00:43 43.9 °F 42.8 °F 30.5 in NW 0.9 mph 2 mph 96% 0 in 0 W/m2
00:48 43.9 °F 42.8 °F 30.5 in Calm   2 mph 96% 0 in 0 W/m2
00:53 44.1 °F 43 °F 30.5 in WNW 0.9 mph 2 mph 96% 0 in 0 W/m2
00:58 44.1 °F 43 °F 30.5 in WNW 0.9 mph 1 mph 96% 0 in 0 W/m2
01:03 44.1 °F 43 °F 30.5 in WNW 2.9 mph 3 mph 96% 0 in 0 W/m2
01:08 44.1 °F 43 °F 30.5 in NW 0.9 mph 2 mph 96% 0 in 0 W/m2
01:13 44.1 °F 43 °F 30.5 in Calm   2 mph 96% 0 in 0 W/m2
01:18 44.2 °F 43.2 °F 30.5 in Calm     96% 0 in 0 W/m2
01:23 44.2 °F 43 °F 30.5 in Calm     95% 0 in 0 W/m2
01:28 44.1 °F 42.8 °F 30.5 in Calm     95% 0 in 0 W/m2
01:33 44.1 °F 42.8 °F 30.5 in Calm     95% 0 in 0 W/m2
01:38 44.1 °F 42.8 °F 30.5 in Calm     95% 0 in 0 W/m2
01:43 44.1 °F 42.8 °F 30.5 in Calm     95% 0 in 0 W/m2
01:48 44.1 °F 42.8 °F 30.5 in Calm     95% 0 in 0 W/m2
01:53 43.9 °F 42.6 °F 30.5 in Calm     95% 0 in 0 W/m2
01:58 43.9 °F 42.6 °F 30.5 in Calm     95% 0 in 0 W/m2
02:03 43.9 °F 42.6 °F 30.5 in Calm     95% 0 in 0 W/m2
02:08 43.9 °F 42.6 °F 30.5 in Calm     95% 0 in 0 W/m2
02:13 43.9 °F 42.6 °F 30.5 in Calm     95% 0 in 0 W/m2
02:18 43.9 °F 42.6 °F 30.5 in Calm     95% 0 in 0 W/m2
02:23 43.9 °F 42.6 °F 30.5 in Calm     95% 0 in 0 W/m2
02:28 43.9 °F 42.6 °F 30.5 in Calm     95% 0 in 0 W/m2
02:48 43.9 °F 42.6 °F 30.6 in Calm     95% 0 in 0 W/m2
02:53 43.9 °F 42.6 °F 30.6 in Calm     95% 0 in 0 W/m2
02:58 43.9 °F 42.6 °F 30.6 in Calm     95% 0 in 0 W/m2
03:03 43.9 °F 42.8 °F 30.6 in Calm   1 mph 96% 0 in 0 W/m2
03:08 43.7 °F 42.6 °F 30.6 in NE 0.9 mph 2 mph 96% 0 in 0 W/m2
03:13 43.5 °F 42.4 °F 30.6 in Calm   1 mph 96% 0 in 0 W/m2
03:18 43.5 °F 42.4 °F 30.6 in Calm     96% 0 in 0 W/m2
03:23 43.5 °F 42.4 °F 30.6 in Calm     96% 0 in 0 W/m2
03:28 43.5 °F 42.4 °F 30.6 in Calm     96% 0 in 0 W/m2
03:33 43.3 °F 42.3 °F 30.6 in Calm     96% 0 in 0 W/m2
03:38 43.3 °F 42.3 °F 30.6 in NE 1 mph 1 mph 96% 0 in 0 W/m2
03:43 43.3 °F 42.1 °F 30.5 in Calm     95% 0 in 0 W/m2
03:48 43.3 °F 42.1 °F 30.5 in Calm     95% 0 in 0 W/m2
03:53 43.3 °F 42.1 °F 30.5 in Calm     95% 0 in 0 W/m2
03:58 43.3 °F 42.1 °F 30.5 in Calm     95% 0 in 0 W/m2
04:03 43.3 °F 42.1 °F 30.6 in Calm     95% 0 in 0 W/m2
04:08 43.3 °F 42.1 °F 30.5 in Calm     95% 0 in 0 W/m2
04:13 43.3 °F 42.3 °F 30.6 in Calm     96% 0 in 0 W/m2
04:18 43.3 °F 42.3 °F 30.5 in Calm     96% 0 in 0 W/m2
04:23 43.3 °F 42.3 °F 30.5 in Calm   1 mph 96% 0 in 0 W/m2
04:28 43.3 °F 42.3 °F 30.6 in Calm     96% 0 in 0 W/m2
04:33 43.3 °F 42.3 °F 30.5 in Calm   1 mph 96% 0 in 0 W/m2
04:38 43.3 °F 42.3 °F 30.5 in Calm   1 mph 96% 0 in 0 W/m2
04:43 43.3 °F 42.3 °F 30.6 in Calm     96% 0 in 0 W/m2
04:48 43.3 °F 42.3 °F 30.6 in Calm   1 mph 96% 0 in 0 W/m2
04:53 43.3 °F 42.3 °F 30.6 in North 2 mph 2 mph 96% 0 in 0 W/m2
04:58 43.3 °F 42.3 °F 30.6 in Calm     96% 0 in 0 W/m2
05:03 43.3 °F 42.3 °F 30.6 in Calm     96% 0 in 0 W/m2
05:08 43.3 °F 42.3 °F 30.6 in Calm     96% 0 in 0 W/m2
05:13 43.3 °F 42.3 °F 30.6 in Calm     96% 0 in 0 W/m2
05:18 43.3 °F 42.3 °F 30.6 in Calm     96% 0 in 0 W/m2
05:23 43.3 °F 42.3 °F 30.6 in Calm     96% 0 in 0 W/m2
05:28 43.3 °F 42.3 °F 30.6 in Calm     96% 0 in 0 W/m2
05:33 43.3 °F 42.3 °F 30.6 in NE 0.9 mph 2 mph 96% 0 in 0 W/m2
05:50 43.3 °F 42.3 °F 30.6 in NNW 2 mph 2 mph 96% 0 in 0 W/m2
05:55 43.5 °F 42.4 °F 30.6 in Calm   1 mph 96% 0 in 0 W/m2
06:00 43.5 °F 42.4 °F 30.6 in Calm     96% 0 in 0 W/m2
06:05 43.5 °F 42.4 °F 30.6 in Calm     96% 0 in 0 W/m2
06:10 43.5 °F 42.4 °F 30.6 in Calm   1 mph 96% 0 in 0 W/m2
06:16 43.5 °F 42.4 °F 30.6 in Calm     96% 0 in 0 W/m2
06:21 43.5 °F 42.4 °F 30.6 in Calm     96% 0 in 0 W/m2
06:26 43.5 °F 42.4 °F 30.6 in NNW 0.9 mph 2 mph 96% 0 in 0 W/m2
06:31 43.5 °F 42.4 °F 30.6 in Calm   2 mph 96% 0 in 0 W/m2
06:36 43.5 °F 42.4 °F 30.6 in Calm     96% 0 in 0 W/m2
06:41 43.5 °F 42.4 °F 30.6 in Calm   1 mph 96% 0 in 0 W/m2
06:46 43.5 °F 42.4 °F 30.6 in North 2 mph 3 mph 96% 0 in 0 W/m2
06:51 43.5 °F 42.4 °F 30.6 in Calm     96% 0 in 0 W/m2
06:56 43.7 °F 42.6 °F 30.6 in Calm     96% 0 in 0 W/m2
07:01 43.7 °F 42.6 °F 30.6 in Calm     96% 0 in 0 W/m2
07:06 43.7 °F 42.6 °F 30.6 in Calm     96% 0 in 0 W/m2
07:11 43.7 °F 42.6 °F 30.6 in Calm     96% 0 in 0 W/m2
07:16 43.7 °F 42.6 °F 30.6 in Calm     96% 0 in 0 W/m2
07:21 43.7 °F 42.6 °F 30.6 in NE 0.9 mph 3 mph 96% 0 in 0 W/m2
07:26 43.7 °F 42.6 °F 30.6 in Calm     96% 0 in 0 W/m2
07:31 43.7 °F 42.6 °F 30.6 in Calm   3 mph 96% 0 in 0 W/m2
07:36 43.9 °F 42.8 °F 30.6 in Calm     96% 0 in 0 W/m2
07:41 43.9 °F 42.8 °F 30.6 in Calm   1 mph 96% 0 in 0 W/m2
07:46 43.9 °F 42.8 °F 30.6 in Calm     96% 0 in 0 W/m2
07:56 43.9 °F 42.8 °F 30.6 in Calm     96% 0 in 0 W/m2
08:01 43.9 °F 42.8 °F 30.6 in NNW 0.9 mph 2 mph 96% 0 in 0 W/m2
08:06 43.9 °F 42.8 °F 30.6 in NNW 0.9 mph 2 mph 96% 0 in 0 W/m2
08:11 43.9 °F 42.8 °F 30.6 in Calm     96% 0 in 0 W/m2
08:16 43.9 °F 42.8 °F 30.6 in Calm     96% 0 in 0 W/m2
08:21 43.9 °F 42.8 °F 30.6 in Calm     96% 0 in 0 W/m2
08:26 43.9 °F 42.8 °F 30.6 in NNW 0.9 mph 2 mph 96% 0 in 0 W/m2
08:31 43.9 °F 42.8 °F 30.6 in Calm   2 mph 96% 0 in 0 W/m2
08:36 43.9 °F 42.8 °F 30.6 in Calm     96% 0 in 0 W/m2
08:41 43.7 °F 42.6 °F 30.6 in Calm   1 mph 96% 0 in 0 W/m2
08:46 43.7 °F 42.6 °F 30.6 in Calm     96% 0 in 5 W/m2
08:51 43.7 °F 42.6 °F 30.6 in Calm   2 mph 96% 0 in 5 W/m2
08:56 43.7 °F 42.6 °F 30.6 in Calm     96% 0 in 7 W/m2
09:01 43.5 °F 42.4 °F 30.6 in Calm   2 mph 96% 0 in 7 W/m2
09:06 43.5 °F 42.4 °F 30.6 in Calm     96% 0 in 9 W/m2
09:11 43.5 °F 42.4 °F 30.6 in Calm     96% 0 in 11 W/m2
09:16 43.5 °F 42.4 °F 30.6 in Calm     96% 0 in 11 W/m2
09:21 43.5 °F 42.4 °F 30.6 in Calm     96% 0 in 12 W/m2
09:26 43.5 °F 42.4 °F 30.6 in Calm     96% 0 in 12 W/m2
09:31 43.7 °F 42.6 °F 30.6 in Calm     96% 0 in 14 W/m2
09:36 43.7 °F 42.6 °F 30.6 in Calm     96% 0 in 16 W/m2
09:41 43.7 °F 42.6 °F 30.6 in Calm     96% 0 in 19 W/m2
09:46 43.7 °F 42.6 °F 30.6 in Calm     96% 0 in 19 W/m2
09:51 43.7 °F 42.6 °F 30.6 in Calm     96% 0 in 23 W/m2
09:56 43.9 °F 42.8 °F 30.6 in Calm     96% 0 in 28 W/m2
10:01 43.9 °F 42.8 °F 30.6 in Calm     96% 0 in 37 W/m2
10:06 44.1 °F 43 °F 30.6 in Calm     96% 0 in 39 W/m2
10:11 44.1 °F 43 °F 30.6 in Calm     96% 0 in 37 W/m2
10:16 44.1 °F 43 °F 30.6 in Calm     96% 0 in 44 W/m2
10:21 44.2 °F 43.2 °F 30.6 in Calm     96% 0 in 44 W/m2
10:26 44.2 °F 43.2 °F 30.6 in Calm     96% 0 in 51 W/m2
10:31 44.4 °F 43.3 °F 30.6 in Calm     96% 0 in 54 W/m2
10:36 44.4 °F 43.3 °F 30.6 in Calm   1 mph 96% 0 in 54 W/m2
10:41 44.6 °F 43.5 °F 30.6 in Calm     96% 0 in 54 W/m2
10:46 44.8 °F 43.7 °F 30.6 in Calm     96% 0 in 58 W/m2
10:51 45 °F 43.9 °F 30.6 in Calm     96% 0 in 69 W/m2
10:56 45 °F 43.9 °F 30.6 in Calm   2 mph 96% 0 in 63 W/m2
11:01 45.1 °F 44.1 °F 30.6 in Calm     96% 0 in 72 W/m2
11:06 45.1 °F 44.1 °F 30.6 in Calm     96% 0 in 77 W/m2
11:11 45.3 °F 44.2 °F 30.6 in Calm     96% 0 in 83 W/m2
11:17 45.3 °F 44.2 °F 30.6 in Calm     96% 0 in 77 W/m2
11:22 45.7 °F 44.6 °F 30.6 in Calm     96% 0 in 76 W/m2
11:27 45.7 °F 44.4 °F 30.6 in Calm     95% 0 in 76 W/m2
11:32 45.9 °F 44.4 °F 30.6 in ENE 0.9 mph 1 mph 95% 0 in 70 W/m2
11:37 46 °F 44.6 °F 30.6 in Calm     95% 0 in 74 W/m2
11:42 46 °F 44.6 °F 30.6 in NE 2 mph 2 mph 95% 0 in 74 W/m2
11:47 46.2 °F 44.8 °F 30.6 in Calm     95% 0 in 84 W/m2
11:52 46.4 °F 45 °F 30.6 in North 0.9 mph 1 mph 95% 0 in 91 W/m2
11:57 46.6 °F 45.1 °F 30.6 in Calm     95% 0 in 95 W/m2
12:02 46.8 °F 45.1 °F 30.6 in Calm     94% 0 in 98 W/m2
12:07 46.9 °F 45.3 °F 30.6 in Calm   2 mph 94% 0 in 90 W/m2
12:12 47.1 °F 45.5 °F 30.6 in Calm     94% 0 in 88 W/m2
12:17 47.1 °F 45.5 °F 30.6 in Calm     94% 0 in 95 W/m2
12:22 47.5 °F 45.5 °F 30.6 in Calm   2 mph 93% 0 in 104 W/m2
12:27 47.5 °F 45.5 °F 30.6 in Calm     93% 0 in 111 W/m2
12:32 47.7 °F 45.7 °F 30.6 in Calm   1 mph 93% 0 in 120 W/m2
12:37 47.8 °F 45.7 °F 30.6 in East 0.9 mph 2 mph 92% 0 in 135 W/m2
12:42 47.8 °F 45.7 °F 30.6 in Calm   1 mph 92% 0 in 134 W/m2
12:47 48 °F 45.9 °F 30.6 in Calm   1 mph 92% 0 in 134 W/m2
12:52 48 °F 45.9 °F 30.6 in Calm   4 mph 92% 0 in 132 W/m2
12:57 48.2 °F 46 °F 30.6 in Calm     92% 0 in 121 W/m2
13:02 48.4 °F 45.9 °F 30.6 in East 0.9 mph 4 mph 91% 0 in 116 W/m2
13:07 48.6 °F 46 °F 30.6 in ENE 0.9 mph 3 mph 91% 0 in 114 W/m2
13:12 48.6 °F 46 °F 30.6 in ESE 0.9 mph 2 mph 91% 0 in 121 W/m2
13:17 48.7 °F 45.9 °F 30.6 in Calm   3 mph 90% 0 in 123 W/m2
13:22 48.7 °F 45.9 °F 30.6 in ENE 0.9 mph 1 mph 90% 0 in 113 W/m2
13:27 48.9 °F 46 °F 30.6 in NW 0.9 mph 2 mph 90% 0 in 105 W/m2
13:32 48.9 °F 45.9 °F 30.6 in Calm   2 mph 89% 0 in 109 W/m2
13:37 49.1 °F 46 °F 30.6 in Calm   2 mph 89% 0 in 100 W/m2
13:42 49.1 °F 46 °F 30.6 in Calm     89% 0 in 109 W/m2
13:47 49.3 °F 46.2 °F 30.6 in Calm   3 mph 89% 0 in 102 W/m2
13:52 49.3 °F 45.9 °F 30.6 in NNE 2 mph 2 mph 88% 0 in 81 W/m2
13:57 49.3 °F 45.9 °F 30.6 in Calm   3 mph 88% 0 in 84 W/m2
14:02 49.5 °F 46 °F 30.6 in East 0.9 mph 3 mph 88% 0 in 79 W/m2
14:07 49.3 °F 45.5 °F 30.6 in Calm   2 mph 87% 0 in 67 W/m2
14:12 49.3 °F 45.5 °F 30.6 in ENE 2 mph 2 mph 87% 0 in 53 W/m2
14:17 49.3 °F 45.3 °F 30.6 in SE 0.9 mph 2 mph 86% 0 in 56 W/m2
14:22 49.3 °F 45.3 °F 30.6 in ENE 0.9 mph 2 mph 86% 0 in 67 W/m2
14:27 49.3 °F 45.5 °F 30.6 in Calm   3 mph 87% 0 in 84 W/m2
14:32 49.3 °F 45.5 °F 30.6 in Calm   2 mph 87% 0 in 70 W/m2
14:37 49.5 °F 45.5 °F 30.6 in Calm   3 mph 86% 0 in 76 W/m2
14:42 49.5 °F 45.5 °F 30.6 in NE 0.9 mph 1 mph 86% 0 in 70 W/m2
14:47 49.5 °F 45.7 °F 30.6 in Calm   2 mph 87% 0 in 49 W/m2
14:52 49.3 °F 45.5 °F 30.6 in East 2 mph 3 mph 87% 0 in 30 W/m2
14:57 49.3 °F 45.5 °F 30.6 in Calm     87% 0 in 28 W/m2
15:02 48.9 °F 45.1 °F 30.6 in East 0.9 mph 3 mph 87% 0 in 28 W/m2
15:07 48.7 °F 45.3 °F 30.6 in Calm     88% 0 in 26 W/m2
15:12 48.7 °F 45.3 °F 30.6 in Calm     88% 0 in 25 W/m2
15:17 48.6 °F 45.1 °F 30.6 in Calm     88% 0 in 25 W/m2
15:22 48.2 °F 44.8 °F 30.6 in Calm     88% 0 in 23 W/m2
15:27 48 °F 44.6 °F 30.6 in East 0.9 mph 1 mph 88% 0 in 23 W/m2
15:32 47.8 °F 44.8 °F 30.6 in Calm   1 mph 89% 0 in 21 W/m2
15:37 47.8 °F 44.8 °F 30.6 in Calm     89% 0 in 21 W/m2
15:42 47.7 °F 44.6 °F 30.6 in Calm     89% 0 in 19 W/m2
15:48 47.5 °F 44.4 °F 30.6 in Calm     89% 0 in 19 W/m2
15:53 47.1 °F 44.1 °F 30.6 in Calm   3 mph 89% 0 in 18 W/m2
15:58 47.1 °F 43.7 °F 30.6 in Calm     88% 0 in 18 W/m2
16:03 46.9 °F 43.5 °F 30.6 in ENE 0.9 mph 3 mph 88% 0 in 16 W/m2
16:08 46.9 °F 43.5 °F 30.6 in Calm     88% 0 in 14 W/m2
16:13 46.9 °F 43.5 °F 30.6 in Calm   2 mph 88% 0 in 14 W/m2
16:18 46.8 °F 43.2 °F 30.6 in Calm     87% 0 in 14 W/m2
16:23 46.8 °F 43.3 °F 30.6 in Calm   2 mph 88% 0 in 14 W/m2
16:28 46.6 °F 43 °F 30.6 in Calm     87% 0 in 9 W/m2
16:33 46.4 °F 43 °F 30.6 in Calm     88% 0 in 5 W/m2
16:38 46.2 °F 42.8 °F 30.6 in Calm     88% 0 in 5 W/m2
16:43 46 °F 42.6 °F 30.6 in Calm     88% 0 in 0 W/m2
16:48 45.9 °F 42.4 °F 30.6 in Calm     88% 0 in 0 W/m2
16:53 45.7 °F 42.3 °F 30.6 in Calm     88% 0 in 0 W/m2
16:58 45.5 °F 42.4 °F 30.6 in Calm     89% 0 in 0 W/m2
17:03 45.1 °F 42.1 °F 30.6 in Calm     89% 0 in 0 W/m2
17:08 45 °F 41.9 °F 30.6 in Calm     89% 0 in 0 W/m2
17:13 44.8 °F 42.1 °F 30.6 in Calm     90% 0 in 0 W/m2
17:18 44.4 °F 41.7 °F 30.6 in Calm     90% 0 in 0 W/m2
17:23 44.2 °F 41.5 °F 30.6 in Calm     90% 0 in 0 W/m2
17:28 44.1 °F 41.4 °F 30.6 in Calm     90% 0 in 0 W/m2
17:33 43.9 °F 41.4 °F 30.6 in Calm     91% 0 in 0 W/m2
17:38 43.7 °F 41.2 °F 30.6 in Calm     91% 0 in 0 W/m2
17:43 43.5 °F 41 °F 30.6 in Calm     91% 0 in 0 W/m2
17:48 43.3 °F 40.8 °F 30.6 in Calm     91% 0 in 0 W/m2
17:53 43.3 °F 40.8 °F 30.6 in Calm     91% 0 in 0 W/m2
17:58 43.2 °F 41 °F 30.6 in Calm     92% 0 in 0 W/m2
18:03 43.2 °F 41 °F 30.6 in ENE 0.9 mph 1 mph 92% 0 in 0 W/m2
18:08 43 °F 40.8 °F 30.6 in Calm     92% 0 in 0 W/m2
18:13 43 °F 40.8 °F 30.6 in Calm     92% 0 in 0 W/m2
18:18 42.8 °F 40.6 °F 30.6 in Calm     92% 0 in 0 W/m2
18:23 42.8 °F 40.6 °F 30.6 in Calm     92% 0 in 0 W/m2
18:28 42.8 °F 41 °F 30.6 in Calm     93% 0 in 0 W/m2
18:33 42.6 °F 40.5 °F 30.6 in Calm     92% 0 in 0 W/m2
18:38 42.4 °F 40.6 °F 30.6 in Calm     93% 0 in 0 W/m2
18:43 42.4 °F 40.6 °F 30.6 in Calm     93% 0 in 0 W/m2
18:48 42.4 °F 40.6 °F 30.6 in Calm     93% 0 in 0 W/m2
18:53 42.4 °F 40.6 °F 30.6 in Calm     93% 0 in 0 W/m2
18:58 42.3 °F 40.5 °F 30.6 in Calm     93% 0 in 0 W/m2
19:03 42.3 °F 40.5 °F 30.6 in Calm     93% 0 in 0 W/m2
19:08 42.3 °F 40.5 °F 30.6 in Calm     93% 0 in 0 W/m2
19:13 42.1 °F 40.3 °F 30.6 in Calm     93% 0 in 0 W/m2
19:18 42.1 °F 40.3 °F 30.6 in Calm     93% 0 in 0 W/m2
19:23 42.1 °F 40.5 °F 30.6 in Calm     94% 0 in 0 W/m2
19:28 41.9 °F 40.1 °F 30.6 in Calm     93% 0 in 0 W/m2
19:46 41.4 °F 39.7 °F 30.6 in Calm     94% 0 in 0 W/m2
19:51 41.4 °F 39.7 °F 30.6 in Calm     94% 0 in 0 W/m2
19:56 41.2 °F 39.6 °F 30.6 in Calm     94% 0 in 0 W/m2
20:01 41 °F 39.4 °F 30.6 in Calm     94% 0 in 0 W/m2
20:06 41.2 °F 39.6 °F 30.6 in Calm   1 mph 94% 0 in 0 W/m2
20:11 41.2 °F 39.6 °F 30.6 in Calm     94% 0 in 0 W/m2
20:16 41.4 °F 40.1 °F 30.6 in Calm   1 mph 95% 0 in 0 W/m2
20:21 41.7 °F 40.5 °F 30.6 in Calm   1 mph 95% 0 in 0 W/m2
20:26 42.1 °F 40.8 °F 30.6 in Calm     95% 0 in 0 W/m2
20:32 42.1 °F 40.8 °F 30.6 in Calm     95% 0 in 0 W/m2
20:37 42.3 °F 41 °F 30.6 in Calm   1 mph 95% 0 in 0 W/m2
20:42 42.4 °F 41.2 °F 30.6 in Calm     95% 0 in 0 W/m2
20:47 42.4 °F 41.2 °F 30.6 in Calm   1 mph 95% 0 in 0 W/m2
20:52 42.6 °F 41.4 °F 30.6 in Calm     95% 0 in 0 W/m2
20:57 42.8 °F 41.5 °F 30.6 in Calm     95% 0 in 0 W/m2
21:02 43 °F 41.7 °F 30.6 in Calm     95% 0 in 0 W/m2
21:07 43 °F 41.7 °F 30.6 in Calm     95% 0 in 0 W/m2
21:12 43.2 °F 41.9 °F 30.6 in Calm     95% 0 in 0 W/m2
21:17 43.2 °F 41.9 °F 30.6 in Calm     95% 0 in 0 W/m2
21:22 43.3 °F 42.1 °F 30.6 in Calm     95% 0 in 0 W/m2
21:27 43.3 °F 42.1 °F 30.6 in Calm     95% 0 in 0 W/m2
21:32 43.5 °F 42.3 °F 30.6 in Calm     95% 0 in 0 W/m2
21:37 43.7 °F 42.4 °F 30.6 in Calm     95% 0 in 0 W/m2
21:42 44.1 °F 42.4 °F 30.6 in East 0.9 mph 2 mph 94% 0 in 0 W/m2
21:47 44.2 °F 42.6 °F 30.6 in Calm     94% 0 in 0 W/m2
21:52 44.4 °F 42.8 °F 30.6 in Calm     94% 0 in 0 W/m2
21:57 44.8 °F 42.8 °F 30.6 in Calm   1 mph 93% 0 in 0 W/m2
22:18 44.8 °F 42.6 °F 30.6 in East 0.9 mph 1 mph 92% 0 in 0 W/m2
22:23 44.8 °F 42.6 °F 30.6 in Calm     92% 0 in 0 W/m2
22:28 44.8 °F 42.6 °F 30.6 in East 0.9 mph 1 mph 92% 0 in 0 W/m2
22:33 44.8 °F 42.6 °F 30.6 in SE 0.9 mph 2 mph 92% 0 in 0 W/m2
22:38 44.8 °F 42.6 °F 30.6 in Calm     92% 0 in 0 W/m2
22:43 44.8 °F 42.6 °F 30.6 in Calm   3 mph 92% 0 in 0 W/m2
22:48 44.8 °F 42.6 °F 30.6 in ESE 0.9 mph 1 mph 92% 0 in 0 W/m2
22:53 44.8 °F 42.6 °F 30.6 in SSE 0.9 mph 3 mph 92% 0 in 0 W/m2
22:58 44.8 °F 42.6 °F 30.6 in SE 0.9 mph 1 mph 92% 0 in 0 W/m2
23:03 45 °F 42.8 °F 30.6 in Calm   1 mph 92% 0 in 0 W/m2
23:08 45 °F 42.8 °F 30.6 in Calm   1 mph 92% 0 in 0 W/m2
23:13 45 °F 42.8 °F 30.6 in Calm   2 mph 92% 0 in 0 W/m2
23:18 45 °F 42.8 °F 30.6 in Calm   2 mph 92% 0 in 0 W/m2
23:23 45.1 °F 43 °F 30.6 in Calm   1 mph 92% 0 in 0 W/m2
23:28 45.3 °F 43.2 °F 30.6 in SE 0.9 mph 3 mph 92% 0 in 0 W/m2
23:33 45.3 °F 43.2 °F 30.6 in Calm   2 mph 92% 0 in 0 W/m2
23:38 45.5 °F 43.3 °F 30.6 in Calm   2 mph 92% 0 in 0 W/m2
23:43 45.7 °F 43.5 °F 30.6 in ESE 2 mph 3 mph 92% 0 in 0 W/m2
23:48 45.7 °F 43.5 °F 30.6 in Calm   1 mph 92% 0 in 0 W/m2
23:53 45.7 °F 43.5 °F 30.6 in Calm   2 mph 92% 0 in 0 W/m2
23:58 45.9 °F 43.7 °F 30.6 in Calm   2 mph 92% 0 in 0 W/m2
Juneau County Weather
Compliments of Weather Underground - 2 mb